Time;durP1;ratioP1;P1;durP2;ratioP2;P2;SDS_P1;SDS_P2;PMS_P1;PMS_P2;Temp;Humidity;BMP_temperature;BMP_pressure;BME280_temperature;BME280_humidity;BME280_pressure;Samples;Min_cycle;Max_cycle;Signal;HPM_P1;HPM_P2
2023/06/26 00:00:16;;;;;;;11.20;10.10;;;;;;;;;;5094889;28;20519;-79
2023/06/26 00:02:47;;;;;;;11.40;10.50;;;;;;;;;;5090217;28;20512;-78
2023/06/26 00:05:30;;;;;;;11.93;10.90;;;;;;;;;;5094370;28;20436;-79
2023/06/26 00:08:00;;;;;;;11.47;10.47;;;;;;;;;;5094360;28;20464;-78
2023/06/26 00:10:28;;;;;;;12.03;9.57;;;;;;;;;;5093462;28;20463;-78
2023/06/26 00:12:58;;;;;;;11.40;10.30;;;;;;;;;;5092928;28;20484;-78
2023/06/26 00:15:31;;;;;;;12.43;11.23;;;;;;;;;;5093291;28;20447;-79
2023/06/26 00:18:03;;;;;;;11.23;10.23;;;;;;;;;;5093696;28;20443;-78
2023/06/26 00:20:35;;;;;;;10.33;9.43;;;;;;;;;;5094578;28;20450;-78
2023/06/26 00:23:17;;;;;;;10.97;10.07;;;;;;;;;;5093868;28;20478;-80
2023/06/26 00:26:01;;;;;;;11.30;10.30;;;;;;;;;;5091025;28;20501;-78
2023/06/26 00:28:29;;;;;;;11.70;10.60;;;;;;;;;;5088263;28;20511;-80
2023/06/26 00:31:01;;;;;;;10.73;9.73;;;;;;;;;;5088299;28;20448;-79
2023/06/26 00:33:28;;;;;;;10.73;9.83;;;;;;;;;;5087950;28;20448;-78
2023/06/26 00:35:56;;;;;;;10.93;9.97;;;;;;;;;;5085932;28;20443;-77
2023/06/26 00:38:36;;;;;;;10.83;9.83;;;;;;;;;;5081134;28;21014;-77
2023/06/26 00:41:12;;;;;;;11.20;10.10;;;;;;;;;;5078328;28;20467;-77
2023/06/26 00:49:35;;;;;;;11.93;10.83;;;;;;;;;;5044393;28;20445;-78
2023/06/26 00:52:17;;;;;;;10.80;9.83;;;;;;;;;;5081556;28;20446;-78
2023/06/26 00:54:53;;;;;;;12.07;10.40;;;;;;;;;;5080728;28;20456;-77
2023/06/26 00:57:43;;;;;;;11.30;10.13;;;;;;;;;;5079661;28;20445;-78
2023/06/26 01:00:34;;;;;;;11.40;10.30;;;;;;;;;;5080839;28;20453;-78
2023/06/26 01:03:02;;;;;;;10.20;9.30;;;;;;;;;;5081319;28;20557;-79
2023/06/26 01:08:23;;;;;;;11.40;10.40;;;;;;;;;;5077032;28;20447;-78
2023/06/26 01:14:02;;;;;;;11.43;10.33;;;;;;;;;;5077074;28;20457;-78
2023/06/26 01:16:37;;;;;;;11.97;10.87;;;;;;;;;;5082244;28;20449;-78
2023/06/26 01:22:01;;;;;;;11.93;10.73;;;;;;;;;;5079914;28;20465;-79
2023/06/26 01:24:56;;;;;;;;;;;;;;;;;;;;;
2023/06/26 01:27:32;;;;;;;10.67;9.67;;;;;;;;;;5082962;28;20445;-78
2023/06/26 01:30:24;;;;;;;10.83;9.93;;;;;;;;;;5084210;28;21020;-79
2023/06/26 01:32:52;;;;;;;11.60;10.50;;;;;;;;;;5079542;28;20548;-79
2023/06/26 01:35:31;;;;;;;11.40;10.47;;;;;;;;;;5078569;28;20484;-80
2023/06/26 01:38:17;;;;;;;11.80;10.60;;;;;;;;;;5080997;28;20436;-78
2023/06/26 01:41:01;;;;;;;;;;;;;;;;;;;;;
2023/06/26 01:43:36;;;;;;;10.70;9.67;;;;;;;;;;5077825;28;20964;-78
2023/06/26 01:46:11;;;;;;;10.83;9.87;;;;;;;;;;5080849;28;20514;-78
2023/06/26 01:48:56;;;;;;;11.30;10.40;;;;;;;;;;5083195;28;20475;-77
2023/06/26 01:51:44;;;;;;;11.83;9.93;;;;;;;;;;5076898;28;20457;-78
2023/06/26 01:54:15;;;;;;;11.20;10.20;;;;;;;;;;5075142;28;20987;-78
2023/06/26 01:57:10;;;;;;;11.10;10.00;;;;;;;;;;5076798;28;20458;-79
2023/06/26 01:59:52;;;;;;;10.90;9.90;;;;;;;;;;5077739;28;20443;-77
2023/06/26 02:02:23;;;;;;;10.90;9.90;;;;;;;;;;5082297;28;20473;-78
2023/06/26 02:05:00;;;;;;;11.97;10.77;;;;;;;;;;5081843;28;20473;-79
2023/06/26 02:07:37;;;;;;;10.97;9.87;;;;;;;;;;5080291;28;20459;-78
2023/06/26 02:10:05;;;;;;;11.97;10.87;;;;;;;;;;5086643;28;20455;-80
2023/06/26 02:12:33;;;;;;;11.07;10.17;;;;;;;;;;5081094;28;20465;-79
2023/06/26 02:15:02;;;;;;;11.07;10.07;;;;;;;;;;5075029;28;20465;-78
2023/06/26 02:17:37;;;;;;;11.60;10.47;;;;;;;;;;5056474;28;20565;-77
2023/06/26 02:20:11;;;;;;;11.13;10.00;;;;;;;;;;5074839;28;20452;-78
2023/06/26 02:22:39;;;;;;;11.20;10.20;;;;;;;;;;5074903;28;20484;-78
2023/06/26 02:25:10;;;;;;;11.03;10.03;;;;;;;;;;5073787;28;20437;-77
2023/06/26 02:27:42;;;;;;;11.60;10.50;;;;;;;;;;5073250;28;21031;-78
2023/06/26 02:30:19;;;;;;;11.43;10.33;;;;;;;;;;5074070;28;20539;-79
2023/06/26 02:32:54;;;;;;;11.67;10.47;;;;;;;;;;5072495;28;20993;-79
2023/06/26 02:35:21;;;;;;;11.00;10.10;;;;;;;;;;5074775;28;20486;-80
2023/06/26 02:37:49;;;;;;;11.27;10.10;;;;;;;;;;5076642;28;20536;-79
2023/06/26 02:40:25;;;;;;;11.60;10.60;;;;;;;;;;5079112;28;20882;-79
2023/06/26 02:43:16;;;;;;;;;;;;;;;;;;;;;
2023/06/26 02:49:18;;;;;;;10.73;9.83;;;;;;;;;;5042285;28;20491;-79
2023/06/26 02:51:53;;;;;;;11.30;10.20;;;;;;;;;;5076699;28;20510;-79
2023/06/26 02:54:35;;;;;;;11.60;10.27;;;;;;;;;;5074817;28;20498;-78
2023/06/26 02:57:17;;;;;;;11.13;10.13;;;;;;;;;;5075260;28;20943;-80
2023/06/26 02:59:46;;;;;;;11.23;10.13;;;;;;;;;;5074965;28;20429;-79
2023/06/26 03:02:29;;;;;;;11.17;9.97;;;;;;;;;;5074630;28;20906;-79
2023/06/26 03:05:17;;;;;;;12.80;11.63;;;;;;;;;;5075330;28;20522;-79
2023/06/26 03:07:56;;;;;;;12.07;11.00;;;;;;;;;;5075397;28;20948;-78
2023/06/26 03:13:18;;;;;;;11.10;10.10;;;;;;;;;;5064257;28;20540;-77
2023/06/26 03:16:04;;;;;;;12.30;11.00;;;;;;;;;;5077892;28;20433;-78
2023/06/26 03:18:39;;;;;;;11.57;10.47;;;;;;;;;;5076812;28;20453;-77
2023/06/26 03:21:13;;;;;;;11.47;10.37;;;;;;;;;;5079557;28;20479;-80
2023/06/26 03:26:47;;;;;;;11.17;10.17;;;;;;;;;;5075479;28;20436;-78
2023/06/26 03:29:17;;;;;;;11.97;10.70;;;;;;;;;;5080462;28;20462;-78
2023/06/26 03:34:48;;;;;;;11.27;10.27;;;;;;;;;;5076987;28;20514;-78
2023/06/26 03:37:35;;;;;;;11.00;10.00;;;;;;;;;;5081062;28;20472;-78
2023/06/26 03:40:07;;;;;;;10.93;9.80;;;;;;;;;;5082359;28;20932;-79
2023/06/26 03:42:53;;;;;;;12.87;11.67;;;;;;;;;;5081213;28;20533;-79
2023/06/26 03:45:33;;;;;;;11.03;10.00;;;;;;;;;;5080407;28;20865;-78
2023/06/26 03:48:04;;;;;;;11.33;10.10;;;;;;;;;;5079870;28;20539;-78
2023/06/26 03:50:32;;;;;;;11.83;10.70;;;;;;;;;;5081031;28;20444;-79
2023/06/26 03:53:06;;;;;;;11.70;10.50;;;;;;;;;;5079479;28;20464;-78
2023/06/26 03:55:39;;;;;;;11.17;10.17;;;;;;;;;;5080581;28;20472;-79
2023/06/26 03:58:07;;;;;;;12.17;10.90;;;;;;;;;;5080680;28;20514;-79
2023/06/26 04:00:42;;;;;;;11.30;10.20;;;;;;;;;;5079703;28;20447;-79
2023/06/26 04:03:24;;;;;;;11.40;10.20;;;;;;;;;;5079965;28;20514;-77
2023/06/26 04:05:51;;;;;;;13.03;11.10;;;;;;;;;;5079370;28;20452;-78
2023/06/26 04:08:22;;;;;;;14.20;10.87;;;;;;;;;;5079112;28;20449;-78
2023/06/26 04:10:52;;;;;;;12.03;10.83;;;;;;;;;;5079431;28;20453;-78
2023/06/26 04:13:23;;;;;;;12.27;10.87;;;;;;;;;;5078439;28;20467;-79
2023/06/26 04:15:50;;;;;;;12.73;11.43;;;;;;;;;;5078175;28;20561;-79
2023/06/26 04:18:20;;;;;;;12.47;11.17;;;;;;;;;;5077205;28;20436;-79
2023/06/26 04:21:02;;;;;;;12.20;10.90;;;;;;;;;;5069106;28;20503;-80
2023/06/26 04:23:30;;;;;;;12.30;11.13;;;;;;;;;;5056905;28;20916;-79
2023/06/26 04:25:59;;;;;;;13.00;10.57;;;;;;;;;;5056914;28;20464;-79
2023/06/26 04:28:27;;;;;;;13.80;10.20;;;;;;;;;;5056178;28;20450;-80
2023/06/26 04:30:54;;;;;;;11.27;10.17;;;;;;;;;;5055993;28;20436;-79
2023/06/26 04:33:23;;;;;;;11.77;10.67;;;;;;;;;;5055105;28;20983;-78
2023/06/26 04:35:55;;;;;;;11.10;10.00;;;;;;;;;;5056150;28;20468;-78
2023/06/26 04:38:25;;;;;;;11.60;10.50;;;;;;;;;;5056381;28;20488;-78
2023/06/26 04:40:53;;;;;;;12.00;10.87;;;;;;;;;;5057220;28;20514;-78
2023/06/26 04:43:28;;;;;;;11.83;10.70;;;;;;;;;;5057861;28;20486;-78
2023/06/26 04:45:59;;;;;;;12.80;10.77;;;;;;;;;;5058768;28;20920;-79
2023/06/26 04:48:27;;;;;;;12.10;11.07;;;;;;;;;;5065227;28;20492;-78
2023/06/26 04:50:54;;;;;;;11.37;10.27;;;;;;;;;;5067589;28;20450;-78
2023/06/26 04:53:32;;;;;;;11.40;10.33;;;;;;;;;;5065704;28;20468;-78
2023/06/26 04:55:59;;;;;;;11.93;10.73;;;;;;;;;;5062366;28;20443;-79
2023/06/26 04:58:29;;;;;;;11.43;10.43;;;;;;;;;;5062286;28;20519;-80
2023/06/26 05:00:56;;;;;;;11.97;10.77;;;;;;;;;;5062029;28;20906;-78
2023/06/26 05:03:23;;;;;;;11.50;10.40;;;;;;;;;;5067149;28;20572;-77
2023/06/26 05:05:52;;;;;;;12.57;11.37;;;;;;;;;;5070460;28;20445;-79
2023/06/26 05:08:20;;;;;;;11.97;10.87;;;;;;;;;;5067859;28;20469;-80
2023/06/26 05:10:47;;;;;;;12.30;11.30;;;;;;;;;;5069530;28;20426;-77
2023/06/26 05:13:17;;;;;;;11.63;10.60;;;;;;;;;;5071488;28;20466;-78
2023/06/26 05:15:46;;;;;;;10.30;9.40;;;;;;;;;;5072718;28;20472;-78
2023/06/26 05:18:14;;;;;;;11.63;10.60;;;;;;;;;;5071445;28;20461;-78
2023/06/26 05:20:42;;;;;;;13.90;10.90;;;;;;;;;;5071523;28;20446;-78
2023/06/26 05:23:09;;;;;;;11.50;10.57;;;;;;;;;;5071842;28;20477;-78
2023/06/26 05:25:37;;;;;;;12.43;10.30;;;;;;;;;;5063066;28;20492;-78
2023/06/26 05:28:06;;;;;;;11.67;10.43;;;;;;;;;;5055677;28;20458;-78
2023/06/26 05:30:35;;;;;;;9.87;8.93;;;;;;;;;;5055259;28;20461;-78
2023/06/26 05:33:05;;;;;;;11.60;10.60;;;;;;;;;;5055437;28;20466;-77
2023/06/26 05:35:33;;;;;;;11.50;10.33;;;;;;;;;;5055456;28;20438;-78
2023/06/26 05:38:02;;;;;;;11.97;10.87;;;;;;;;;;5057018;28;20449;-78
2023/06/26 05:40:29;;;;;;;10.93;10.03;;;;;;;;;;5057277;28;20430;-79
2023/06/26 05:42:58;;;;;;;11.70;10.60;;;;;;;;;;5058464;28;20487;-78
2023/06/26 05:45:25;;;;;;;13.63;10.60;;;;;;;;;;5060991;28;20461;-80
2023/06/26 05:47:56;;;;;;;11.33;10.13;;;;;;;;;;5061866;28;20454;-79
2023/06/26 05:50:29;;;;;;;11.30;10.20;;;;;;;;;;5062383;28;20556;-79
2023/06/26 05:52:57;;;;;;;12.07;10.90;;;;;;;;;;5063458;28;20468;-78
2023/06/26 05:55:24;;;;;;;10.83;9.83;;;;;;;;;;5062863;28;20457;-77
2023/06/26 05:57:53;;;;;;;11.73;10.63;;;;;;;;;;5064355;28;20446;-78
2023/06/26 06:00:25;;;;;;;11.23;10.07;;;;;;;;;;5064999;28;20513;-78
2023/06/26 06:02:54;;;;;;;11.60;9.80;;;;;;;;;;5064162;28;20905;-78
2023/06/26 06:05:23;;;;;;;11.60;10.47;;;;;;;;;;5064585;28;21039;-78
2023/06/26 06:07:52;;;;;;;9.93;8.97;;;;;;;;;;5063462;28;20513;-77
2023/06/26 06:13:01;;;;;;;11.67;10.57;;;;;;;;;;5043786;28;20598;-77
2023/06/26 06:15:29;;;;;;;11.50;10.43;;;;;;;;;;5057622;28;20479;-77
2023/06/26 06:17:59;;;;;;;11.63;10.53;;;;;;;;;;5063005;28;20444;-77
2023/06/26 06:20:35;;;;;;;11.67;10.67;;;;;;;;;;5077284;28;20491;-78
2023/06/26 06:23:04;;;;;;;11.03;9.93;;;;;;;;;;5076215;28;20896;-77
2023/06/26 06:25:31;;;;;;;11.70;10.40;;;;;;;;;;5076500;28;20451;-78
2023/06/26 06:28:08;;;;;;;10.90;9.87;;;;;;;;;;5076433;28;20449;-77
2023/06/26 06:30:35;;;;;;;11.27;10.27;;;;;;;;;;5075957;28;20542;-78
2023/06/26 06:33:03;;;;;;;14.27;11.00;;;;;;;;;;5076056;28;20486;-78
2023/06/26 06:35:31;;;;;;;11.40;10.10;;;;;;;;;;5075551;28;20457;-78
2023/06/26 06:37:58;;;;;;;11.23;10.03;;;;;;;;;;5074025;28;20551;-78
2023/06/26 06:40:27;;;;;;;10.80;9.80;;;;;;;;;;5074893;28;20440;-79
2023/06/26 06:42:55;;;;;;;10.80;9.67;;;;;;;;;;5074483;28;20891;-77
2023/06/26 06:45:22;;;;;;;10.93;10.03;;;;;;;;;;5075772;28;20446;-81
2023/06/26 06:47:50;;;;;;;10.87;9.87;;;;;;;;;;5077094;28;20432;-79
2023/06/26 06:50:17;;;;;;;11.53;10.60;;;;;;;;;;5074332;28;20536;-77
2023/06/26 06:52:45;;;;;;;11.87;10.10;;;;;;;;;;5075968;28;20863;-78
2023/06/26 06:55:12;;;;;;;11.27;10.27;;;;;;;;;;5078335;28;20511;-78
2023/06/26 06:57:47;;;;;;;12.13;10.97;;;;;;;;;;5078827;28;20993;-79
2023/06/26 07:00:15;;;;;;;11.00;10.10;;;;;;;;;;5079204;28;20533;-79
2023/06/26 07:02:46;;;;;;;10.03;9.13;;;;;;;;;;5079307;28;20503;-78
2023/06/26 07:05:17;;;;;;;10.97;9.80;;;;;;;;;;5081726;28;20923;-78
2023/06/26 07:07:45;;;;;;;10.83;9.70;;;;;;;;;;5081236;28;20462;-79
2023/06/26 07:10:16;;;;;;;11.50;9.50;;;;;;;;;;5083353;28;20794;-79
2023/06/26 07:12:50;;;;;;;11.37;9.07;;;;;;;;;;5088210;28;20470;-79
2023/06/26 07:15:19;;;;;;;11.47;9.47;;;;;;;;;;5086731;28;20566;-79
2023/06/26 07:17:51;;;;;;;10.70;9.70;;;;;;;;;;5084648;28;20441;-78
2023/06/26 07:20:20;;;;;;;10.47;9.33;;;;;;;;;;5080334;28;20941;-79
2023/06/26 07:22:57;;;;;;;12.57;10.20;;;;;;;;;;5062065;28;20529;-77
2023/06/26 07:25:25;;;;;;;10.47;9.37;;;;;;;;;;5062910;28;20540;-78
2023/06/26 07:27:54;;;;;;;10.30;9.30;;;;;;;;;;5059708;28;20449;-79
2023/06/26 07:30:23;;;;;;;10.73;9.83;;;;;;;;;;5059047;28;20713;-79
2023/06/26 07:32:55;;;;;;;11.07;9.80;;;;;;;;;;5060900;28;20539;-79
2023/06/26 07:35:22;;;;;;;12.80;9.80;;;;;;;;;;5059529;28;20457;-77
2023/06/26 07:37:50;;;;;;;10.00;9.00;;;;;;;;;;5059651;28;20445;-78
2023/06/26 07:40:18;;;;;;;11.27;10.17;;;;;;;;;;5059019;28;20429;-79
2023/06/26 07:42:51;;;;;;;10.03;9.20;;;;;;;;;;5058292;28;20477;-78
2023/06/26 07:45:24;;;;;;;9.83;8.93;;;;;;;;;;5057159;28;20484;-78
2023/06/26 07:47:54;;;;;;;10.33;9.33;;;;;;;;;;5057558;28;20824;-78
2023/06/26 07:50:29;;;;;;;9.57;8.70;;;;;;;;;;5056445;28;20461;-79
2023/06/26 07:52:57;;;;;;;10.43;9.23;;;;;;;;;;5056707;28;20977;-79
2023/06/26 07:55:28;;;;;;;10.57;9.33;;;;;;;;;;5056738;28;20445;-79
2023/06/26 07:57:56;;;;;;;9.83;8.93;;;;;;;;;;5057563;28;20454;-77
2023/06/26 08:00:28;;;;;;;10.27;9.27;;;;;;;;;;5057186;28;20453;-78
2023/06/26 08:02:59;;;;;;;9.60;8.87;;;;;;;;;;5056655;28;20500;-79
2023/06/26 08:05:27;;;;;;;9.30;8.40;;;;;;;;;;5055806;28;20566;-78
2023/06/26 08:07:55;;;;;;;9.97;9.00;;;;;;;;;;5056351;28;20794;-79
2023/06/26 08:10:22;;;;;;;8.97;8.17;;;;;;;;;;5055983;28;20480;-78
2023/06/26 08:12:51;;;;;;;9.33;8.53;;;;;;;;;;5056016;28;20461;-79
2023/06/26 08:15:19;;;;;;;10.00;8.37;;;;;;;;;;5057295;28;20464;-78
2023/06/26 08:17:50;;;;;;;10.63;8.77;;;;;;;;;;5061336;28;20461;-80
2023/06/26 08:20:19;;;;;;;9.20;8.33;;;;;;;;;;5061405;28;20483;-79
2023/06/26 08:22:47;;;;;;;8.57;7.90;;;;;;;;;;5077248;28;20484;-78
2023/06/26 08:25:15;;;;;;;9.07;8.27;;;;;;;;;;5077609;28;20472;-79
2023/06/26 08:27:59;;;;;;;8.20;7.50;;;;;;;;;;5076926;28;20447;-78
2023/06/26 08:30:38;;;;;;;8.10;7.40;;;;;;;;;;5079458;28;20444;-78
2023/06/26 08:33:12;;;;;;;7.37;6.83;;;;;;;;;;5080901;28;20484;-79
2023/06/26 08:35:42;;;;;;;7.73;7.13;;;;;;;;;;5085297;28;20468;-78
2023/06/26 08:38:10;;;;;;;8.60;6.83;;;;;;;;;;5084361;28;20483;-79
2023/06/26 08:40:38;;;;;;;7.33;6.73;;;;;;;;;;5083733;28;20920;-79
2023/06/26 08:43:06;;;;;;;6.87;6.40;;;;;;;;;;5081488;28;20473;-79
2023/06/26 08:45:33;;;;;;;8.33;7.60;;;;;;;;;;5079658;28;20472;-80
2023/06/26 08:48:03;;;;;;;7.13;6.63;;;;;;;;;;5079058;28;20944;-79
2023/06/26 08:50:51;;;;;;;6.57;6.07;;;;;;;;;;5078952;28;20437;-77
2023/06/26 08:59:04;;;;;;;8.33;6.00;;;;;;;;;;5035462;28;20436;-79
2023/06/26 09:01:41;;;;;;;8.53;5.83;;;;;;;;;;5055988;28;20995;-79
2023/06/26 09:04:11;;;;;;;6.70;6.13;;;;;;;;;;5055424;28;20480;-80
2023/06/26 09:06:49;;;;;;;7.30;6.80;;;;;;;;;;5059183;28;20533;-79
2023/06/26 09:09:21;;;;;;;7.07;6.47;;;;;;;;;;5056820;28;20503;-79
2023/06/26 09:11:49;;;;;;;6.57;6.07;;;;;;;;;;5054901;28;20587;-79
2023/06/26 09:14:20;;;;;;;7.13;6.47;;;;;;;;;;5061479;28;20441;-79
2023/06/26 09:17:01;;;;;;;6.77;6.27;;;;;;;;;;5054227;28;20452;-79
2023/06/26 09:19:38;;;;;;;6.30;5.90;;;;;;;;;;5056858;28;20525;-77
2023/06/26 09:22:14;;;;;;;6.70;6.10;;;;;;;;;;5079151;28;20498;-78
2023/06/26 09:24:54;;;;;;;7.40;6.70;;;;;;;;;;5081497;28;20480;-78
2023/06/26 09:27:27;;;;;;;6.20;5.77;;;;;;;;;;5082557;28;20460;-78
2023/06/26 09:29:58;;;;;;;6.30;5.90;;;;;;;;;;5083517;28;20438;-80
2023/06/26 09:35:35;;;;;;;6.17;5.77;;;;;;;;;;5081793;28;20502;-79
2023/06/26 09:38:13;;;;;;;6.97;6.10;;;;;;;;;;5082711;28;20456;-79
2023/06/26 09:40:42;;;;;;;5.63;5.23;;;;;;;;;;5082780;28;20531;-79
2023/06/26 09:43:11;;;;;;;6.50;6.10;;;;;;;;;;5080423;28;20556;-79
2023/06/26 09:45:44;;;;;;;6.17;5.77;;;;;;;;;;5079102;28;20495;-79
2023/06/26 09:48:12;;;;;;;6.20;5.80;;;;;;;;;;5078776;28;20441;-79
2023/06/26 09:50:43;;;;;;;6.77;6.33;;;;;;;;;;5081987;28;20575;-79
2023/06/26 09:53:14;;;;;;;6.47;5.97;;;;;;;;;;5081298;28;20472;-78
2023/06/26 09:55:47;;;;;;;7.00;6.50;;;;;;;;;;5082533;28;20659;-80
2023/06/26 09:58:16;;;;;;;6.40;5.77;;;;;;;;;;5081935;28;20512;-80
2023/06/26 10:00:46;;;;;;;6.53;6.00;;;;;;;;;;5082967;28;20474;-79
2023/06/26 10:03:17;;;;;;;7.67;7.00;;;;;;;;;;5081122;28;20469;-78
2023/06/26 10:05:46;;;;;;;7.30;6.80;;;;;;;;;;5081157;28;20504;-80
2023/06/26 10:08:25;;;;;;;6.90;6.47;;;;;;;;;;5080201;28;20437;-79
2023/06/26 10:11:02;;;;;;;6.80;6.27;;;;;;;;;;5079986;28;20452;-79
2023/06/26 10:13:32;;;;;;;6.87;6.37;;;;;;;;;;5078528;28;20468;-80
2023/06/26 10:16:04;;;;;;;7.50;6.83;;;;;;;;;;5086484;28;20445;-79
2023/06/26 10:18:33;;;;;;;7.27;6.77;;;;;;;;;;5093995;28;20441;-78
2023/06/26 10:21:01;;;;;;;7.47;6.77;;;;;;;;;;5083694;28;20547;-80
2023/06/26 10:23:36;;;;;;;7.10;6.50;;;;;;;;;;5087431;28;20463;-79
2023/06/26 10:26:06;;;;;;;7.57;7.07;;;;;;;;;;5087254;28;20491;-78
2023/06/26 10:28:38;;;;;;;7.87;7.27;;;;;;;;;;5084462;28;20441;-79
2023/06/26 10:31:08;;;;;;;7.30;6.60;;;;;;;;;;5083745;28;20796;-78
2023/06/26 10:33:46;;;;;;;8.17;7.57;;;;;;;;;;5083630;28;20461;-78
2023/06/26 10:36:30;;;;;;;7.53;6.77;;;;;;;;;;5089326;28;20460;-79
2023/06/26 10:42:22;;;;;;;8.70;8.00;;;;;;;;;;5083557;28;20467;-78
2023/06/26 10:45:10;;;;;;;8.80;8.00;;;;;;;;;;5088719;28;20483;-79
2023/06/26 10:47:42;;;;;;;8.33;7.53;;;;;;;;;;5066741;28;20453;-79
2023/06/26 10:50:30;;;;;;;7.53;6.83;;;;;;;;;;5067076;28;20450;-78
2023/06/26 10:53:19;;;;;;;8.30;7.60;;;;;;;;;;5067179;28;20466;-78
2023/06/26 10:56:00;;;;;;;7.50;6.80;;;;;;;;;;5069879;28;20789;-77
2023/06/26 11:04:45;;;;;;;7.07;6.57;;;;;;;;;;5039179;28;20500;-78
2023/06/26 11:07:25;;;;;;;8.07;7.20;;;;;;;;;;5065376;28;20445;-78
2023/06/26 11:10:12;;;;;;;8.70;8.03;;;;;;;;;;5068512;28;20480;-78
2023/06/26 11:12:47;;;;;;;8.13;7.50;;;;;;;;;;5062502;28;20476;-78
2023/06/26 11:15:23;;;;;;;8.77;7.80;;;;;;;;;;5062501;28;20457;-77
2023/06/26 11:17:56;;;;;;;9.73;7.50;;;;;;;;;;5065108;28;20441;-78
2023/06/26 11:20:36;;;;;;;8.40;7.53;;;;;;;;;;5071893;28;20399;-77
2023/06/26 11:23:11;;;;;;;8.80;6.83;;;;;;;;;;5070222;28;20553;-77
2023/06/26 11:25:50;;;;;;;8.30;7.70;;;;;;;;;;5070551;28;20473;-79
2023/06/26 11:28:24;;;;;;;7.47;6.77;;;;;;;;;;5070377;28;20453;-80
2023/06/26 11:36:48;;;;;;;8.50;7.90;;;;;;;;;;5035527;28;20452;-79
2023/06/26 11:42:32;;;;;;;;;;;;;;;;;;;;;
2023/06/26 11:48:04;;;;;;;7.67;7.07;;;;;;;;;;5045739;28;20506;-79
2023/06/26 11:53:31;;;;;;;8.63;7.83;;;;;;;;;;5062171;28;20466;-79
2023/06/26 12:02:52;;;;;;;7.50;6.90;;;;;;;;;;4999916;28;20480;-78
2023/06/26 12:05:34;;;;;;;7.60;6.90;;;;;;;;;;5006865;28;20904;-78
2023/06/26 12:24:35;;;;;;;10.53;7.73;;;;;;;;;;5128359;27;20548;-78
2023/06/26 12:27:13;;;;;;;8.17;7.47;;;;;;;;;;5127642;28;20523;-78
2023/06/26 12:29:57;;;;;;;6.73;6.23;;;;;;;;;;5127612;28;20452;-78
2023/06/26 12:35:36;;;;;;;7.97;7.37;;;;;;;;;;5117458;28;20477;-79
2023/06/26 12:44:57;;;;;;;8.57;7.83;;;;;;;;;;5124536;28;20477;-81
2023/06/26 12:53:57;;;;;;;8.60;7.70;;;;;;;;;;5125437;28;20524;-78
2023/06/26 12:56:32;;;;;;;8.80;7.50;;;;;;;;;;5126826;28;20439;-79
2023/06/26 12:59:26;;;;;;;8.20;7.60;;;;;;;;;;5126839;28;20442;-78
2023/06/26 13:02:06;;;;;;;7.60;6.90;;;;;;;;;;5103301;28;20538;-79
2023/06/26 13:04:46;;;;;;;8.43;7.83;;;;;;;;;;5115596;28;20451;-79
2023/06/26 13:07:14;;;;;;;8.53;7.67;;;;;;;;;;5114784;28;20427;-77
2023/06/26 13:09:45;;;;;;;11.87;6.73;;;;;;;;;;5116524;28;20462;-79
2023/06/26 13:12:42;;;;;;;7.90;7.37;;;;;;;;;;5118725;28;20532;-79
2023/06/26 13:17:57;;;;;;;7.67;6.87;;;;;;;;;;5106122;28;20797;-78
2023/06/26 13:23:16;;;;;;;7.63;6.93;;;;;;;;;;5117060;28;20471;-79
2023/06/26 13:29:15;;;;;;;;;;;;;;;;;;;;;
2023/06/26 13:31:50;;;;;;;7.03;6.20;;;;;;;;;;5104526;28;20442;-79
2023/06/26 13:34:35;;;;;;;7.20;6.10;;;;;;;;;;5105994;28;20528;-79
2023/06/26 13:37:08;;;;;;;9.43;5.97;;;;;;;;;;5106039;28;20479;-80
2023/06/26 13:39:53;;;;;;;7.93;6.70;;;;;;;;;;5105441;28;20424;-79
2023/06/26 13:42:21;;;;;;;6.80;6.30;;;;;;;;;;5105639;28;20464;-78
2023/06/26 13:45:16;;;;;;;6.70;6.20;;;;;;;;;;5105252;28;20440;-80
2023/06/26 13:51:08;;;;;;;6.27;5.70;;;;;;;;;;5098590;28;20440;-79
2023/06/26 13:53:45;;;;;;;6.50;6.00;;;;;;;;;;5110090;28;20479;-78
2023/06/26 13:56:16;;;;;;;7.07;6.30;;;;;;;;;;5102876;28;20543;-78
2023/06/26 14:01:42;;;;;;;6.60;6.00;;;;;;;;;;5090153;28;20432;-76
2023/06/26 14:04:14;;;;;;;5.90;5.40;;;;;;;;;;5102257;28;20464;-78
2023/06/26 14:06:45;;;;;;;7.97;5.73;;;;;;;;;;5103432;28;20424;-80
2023/06/26 14:09:22;;;;;;;5.30;4.80;;;;;;;;;;5102352;28;20444;-78
2023/06/26 14:11:52;;;;;;;6.03;5.30;;;;;;;;;;5100670;28;20472;-80
2023/06/26 14:14:27;;;;;;;9.13;5.33;;;;;;;;;;5102840;28;20486;-79
2023/06/26 14:17:01;;;;;;;5.10;4.70;;;;;;;;;;5100549;28;20456;-82
2023/06/26 14:19:32;;;;;;;5.03;4.70;;;;;;;;;;5099160;28;20451;-79
2023/06/26 14:22:07;;;;;;;4.80;4.40;;;;;;;;;;5098773;28;20513;-79
2023/06/26 14:24:42;;;;;;;5.53;4.57;;;;;;;;;;5098392;28;20471;-78
2023/06/26 14:27:10;;;;;;;5.10;4.60;;;;;;;;;;5099774;28;20542;-79
2023/06/26 14:29:39;;;;;;;4.50;4.20;;;;;;;;;;5098562;28;20451;-79
2023/06/26 14:32:13;;;;;;;4.57;4.03;;;;;;;;;;5101054;28;20463;-78
2023/06/26 14:34:42;;;;;;;4.77;4.37;;;;;;;;;;5104534;28;20443;-77
2023/06/26 14:37:14;;;;;;;4.53;4.23;;;;;;;;;;5101704;28;20444;-78
2023/06/26 14:39:45;;;;;;;7.20;4.40;;;;;;;;;;5103437;28;20440;-77
2023/06/26 14:42:15;;;;;;;7.33;4.00;;;;;;;;;;5103198;28;20875;-77
2023/06/26 14:44:43;;;;;;;6.03;3.60;;;;;;;;;;5100792;28;20539;-78
2023/06/26 14:47:15;;;;;;;3.97;3.67;;;;;;;;;;5100919;28;20549;-81
2023/06/26 14:49:43;;;;;;;3.87;3.53;;;;;;;;;;5100773;28;20447;-77
2023/06/26 14:52:10;;;;;;;4.03;3.70;;;;;;;;;;5101012;28;20524;-78
2023/06/26 14:54:41;;;;;;;6.23;3.90;;;;;;;;;;5100137;28;20499;-77
2023/06/26 14:57:09;;;;;;;5.20;4.07;;;;;;;;;;5103805;28;20854;-79
2023/06/26 14:59:37;;;;;;;4.37;3.80;;;;;;;;;;5101411;28;20456;-77
2023/06/26 15:02:05;;;;;;;4.30;3.90;;;;;;;;;;5104851;28;20452;-79
2023/06/26 15:04:33;;;;;;;6.37;4.50;;;;;;;;;;5104772;28;20440;-77
2023/06/26 15:07:07;;;;;;;5.13;4.20;;;;;;;;;;5111160;28;20439;-79
2023/06/26 15:09:34;;;;;;;6.60;4.80;;;;;;;;;;5110130;28;20429;-78
2023/06/26 15:12:04;;;;;;;5.07;4.10;;;;;;;;;;5110164;28;20482;-78
2023/06/26 15:14:32;;;;;;;4.53;4.13;;;;;;;;;;5106935;28;20472;-77
2023/06/26 15:16:59;;;;;;;6.47;4.20;;;;;;;;;;5103464;28;20475;-77
2023/06/26 15:19:27;;;;;;;4.90;4.50;;;;;;;;;;5102383;28;20472;-78
2023/06/26 15:21:54;;;;;;;5.63;5.03;;;;;;;;;;5102084;28;20440;-79
2023/06/26 15:24:22;;;;;;;5.63;5.20;;;;;;;;;;5102101;28;20448;-79
2023/06/26 15:26:52;;;;;;;5.37;4.87;;;;;;;;;;5103023;28;20463;-79
2023/06/26 15:29:21;;;;;;;5.03;4.53;;;;;;;;;;5100808;28;20481;-80
2023/06/26 15:31:55;;;;;;;6.60;6.00;;;;;;;;;;5100982;28;20476;-78
2023/06/26 15:34:23;;;;;;;5.90;5.30;;;;;;;;;;5101342;28;20541;-80
2023/06/26 15:36:51;;;;;;;9.60;5.83;;;;;;;;;;5100316;28;20452;-79
2023/06/26 15:39:19;;;;;;;7.33;5.67;;;;;;;;;;5099420;28;20534;-77
2023/06/26 15:41:46;;;;;;;6.07;5.57;;;;;;;;;;5099039;28;20521;-77
2023/06/26 15:44:15;;;;;;;5.77;5.27;;;;;;;;;;5098231;28;20850;-78
2023/06/26 15:46:45;;;;;;;5.87;5.37;;;;;;;;;;5094778;28;20553;-79
2023/06/26 15:49:23;;;;;;;6.67;6.07;;;;;;;;;;5096095;28;20995;-76
2023/06/26 15:51:57;;;;;;;5.73;5.00;;;;;;;;;;5098353;28;20508;-79
2023/06/26 15:54:27;;;;;;;6.83;6.13;;;;;;;;;;5099623;28;20470;-79
2023/06/26 15:56:58;;;;;;;6.63;6.13;;;;;;;;;;5101245;28;20515;-80
2023/06/26 15:59:27;;;;;;;8.43;6.30;;;;;;;;;;5102783;28;20458;-77
2023/06/26 16:01:57;;;;;;;7.63;6.77;;;;;;;;;;5100893;28;20690;-78
2023/06/26 16:04:25;;;;;;;7.30;6.70;;;;;;;;;;5101087;28;20522;-78
2023/06/26 16:07:01;;;;;;;7.77;6.80;;;;;;;;;;5100598;28;20436;-79
2023/06/26 16:09:29;;;;;;;7.47;6.80;;;;;;;;;;5101427;28;20516;-80
2023/06/26 16:11:59;;;;;;;7.70;6.90;;;;;;;;;;5100338;28;20503;-80
2023/06/26 16:14:27;;;;;;;7.63;6.83;;;;;;;;;;5099030;28;20503;-79
2023/06/26 16:16:59;;;;;;;8.40;7.67;;;;;;;;;;5102036;28;20463;-81
2023/06/26 16:19:27;;;;;;;7.67;6.97;;;;;;;;;;5099788;28;20448;-78
2023/06/26 16:21:58;;;;;;;7.93;7.03;;;;;;;;;;5100079;28;20478;-81
2023/06/26 16:24:30;;;;;;;7.97;7.33;;;;;;;;;;5099116;28;20452;-79
2023/06/26 16:26:59;;;;;;;7.77;6.87;;;;;;;;;;5098975;28;20532;-79
2023/06/26 16:29:28;;;;;;;7.50;6.80;;;;;;;;;;5096971;28;20565;-78
2023/06/26 16:32:02;;;;;;;7.73;6.93;;;;;;;;;;5097747;28;20428;-78
2023/06/26 16:34:36;;;;;;;7.20;6.50;;;;;;;;;;5102915;28;20525;-79
2023/06/26 16:37:07;;;;;;;9.87;6.90;;;;;;;;;;5104934;28;20479;-78
2023/06/26 16:39:35;;;;;;;8.90;7.30;;;;;;;;;;5104302;28;20519;-78
2023/06/26 16:42:03;;;;;;;7.60;6.90;;;;;;;;;;5097098;28;20460;-78
2023/06/26 16:44:31;;;;;;;12.17;6.17;;;;;;;;;;5095642;28;20448;-79
2023/06/26 16:47:01;;;;;;;6.43;5.83;;;;;;;;;;5100222;28;20455;-78
2023/06/26 16:49:32;;;;;;;6.03;5.43;;;;;;;;;;5102429;28;20444;-78
2023/06/26 16:52:09;;;;;;;14.80;11.47;;;28.20;79.20;;;;;;5105269;28;20435;-79
2023/06/26 16:54:38;;;;;;;5.43;4.97;;;28.20;80.00;;;;;;5103472;28;20467;-81
2023/06/26 16:57:07;;;;;;;4.17;3.77;;;28.10;80.50;;;;;;5103001;28;20434;-79
2023/06/26 16:59:35;;;;;;;3.50;2.80;;;28.10;77.50;;;;;;5103386;28;20447;-81
2023/06/26 17:02:08;;;;;;;5.20;3.33;;;28.20;77.00;;;;;;5107603;28;20444;-79